Time;durP1;ratioP1;P1;durP2;ratioP2;P2;SDS_P1;SDS_P2;PMS_P1;PMS_P2;Temp;Humidity;BMP_temperature;BMP_pressure;BME280_temperature;BME280_humidity;BME280_pressure;Samples;Min_cycle;Max_cycle;Signal;HPM_P1;HPM_P2
2022/02/01 00:02:51;;;;;;;6.13;4.00;;;;;;;;;;5005986;28;20025;-52
2022/02/01 00:05:25;;;;;;;6.70;4.10;;;;;;;;;;5005457;28;20030;-55
2022/02/01 00:08:01;;;;;;;6.07;3.65;;;;;;;;;;5005471;28;20040;-53
2022/02/01 00:13:13;;;;;;;6.93;4.10;;;;;;;;;;5005634;28;20424;-57
2022/02/01 00:37:02;;;;;;;6.47;4.00;;;;;;;;;;5005031;28;20570;-54
2022/02/01 00:39:40;;;;;;;6.78;4.22;;;;;;;;;;5005139;28;20686;-57
2022/02/01 00:42:06;;;;;;;6.22;4.00;;;;;;;;;;5003883;28;20061;-55
2022/02/01 00:44:31;;;;;;;6.80;4.00;;;;;;;;;;5004760;28;20484;-53
2022/02/01 00:46:56;;;;;;;7.37;4.60;;;;;;;;;;5004752;28;20330;-55
2022/02/01 00:49:21;;;;;;;7.40;4.30;;;;;;;;;;5004691;28;20342;-54
2022/02/01 00:51:47;;;;;;;6.60;3.93;;;;;;;;;;5004613;28;20272;-54
2022/02/01 00:54:12;;;;;;;6.93;4.20;;;;;;;;;;5004954;28;20296;-53
2022/02/01 00:56:37;;;;;;;6.87;4.67;;;;;;;;;;5004932;28;20920;-53
2022/02/01 00:59:02;;;;;;;7.35;4.45;;;;;;;;;;5004611;28;20465;-55
2022/02/01 01:01:27;;;;;;;7.07;4.00;;;;;;;;;;5004611;28;20026;-57
2022/02/01 01:03:53;;;;;;;6.97;4.18;;;;;;;;;;5004648;28;20300;-55
2022/02/01 01:06:19;;;;;;;6.88;4.25;;;;;;;;;;5004450;28;20654;-54
2022/02/01 01:08:45;;;;;;;8.57;5.05;;;;;;;;;;5004539;28;20026;-53
2022/02/01 01:11:10;;;;;;;6.45;4.47;;;;;;;;;;5004565;28;20077;-53
2022/02/01 01:43:39;;;;;;;8.00;4.78;;;;;;;;;;5003548;28;20131;-53
2022/02/01 01:54:06;;;;;;;9.88;5.75;;;;;;;;;;5003239;28;20024;-53
2022/02/01 01:56:31;;;;;;;8.15;4.93;;;;;;;;;;5003661;28;20025;-55
2022/02/01 01:58:57;;;;;;;7.28;4.47;;;;;;;;;;5003700;28;20037;-53
2022/02/01 02:01:22;;;;;;;8.80;5.00;;;;;;;;;;5003573;28;20022;-53
2022/02/01 02:03:48;;;;;;;8.82;4.95;;;;;;;;;;5003255;28;20028;-53
2022/02/01 02:06:14;;;;;;;7.65;4.93;;;;;;;;;;5003267;28;20296;-53
2022/02/01 02:08:40;;;;;;;8.93;5.40;;;;;;;;;;5003520;28;20095;-54
2022/02/01 02:11:13;;;;;;;8.57;5.25;;;;;;;;;;5003487;28;20033;-53
2022/02/01 02:16:31;;;;;;;8.23;5.30;;;;;;;;;;5002520;28;20125;-53
2022/02/01 02:18:56;;;;;;;9.20;4.90;;;;;;;;;;5003093;28;20109;-53
2022/02/01 02:21:22;;;;;;;8.33;5.57;;;;;;;;;;5003385;28;20037;-55
2022/02/01 02:23:47;;;;;;;7.77;4.83;;;;;;;;;;5002839;28;20273;-54
2022/02/01 02:26:13;;;;;;;7.93;4.63;;;;;;;;;;5003182;28;20034;-54
2022/02/01 02:28:38;;;;;;;7.80;5.00;;;;;;;;;;5003171;28;20280;-54
2022/02/01 02:31:03;;;;;;;8.68;4.80;;;;;;;;;;5003132;28;20053;-54
2022/02/01 02:33:29;;;;;;;10.02;5.80;;;;;;;;;;5002949;28;20540;-54
2022/02/01 02:36:01;;;;;;;7.75;4.80;;;;;;;;;;5002838;28;20032;-54
2022/02/01 02:38:35;;;;;;;8.20;5.13;;;;;;;;;;5003129;28;20033;-53
2022/02/01 02:46:30;;;;;;;8.43;5.18;;;;;;;;;;5002930;28;20695;-53
2022/02/01 02:48:56;;;;;;;9.63;5.27;;;;;;;;;;5003108;28;20053;-53
2022/02/01 02:51:21;;;;;;;8.93;5.43;;;;;;;;;;5002846;28;20878;-53
2022/02/01 02:53:46;;;;;;;8.38;5.63;;;;;;;;;;5002501;28;20435;-56
2022/02/01 02:56:12;;;;;;;10.45;5.60;;;;;;;;;;5002909;28;20026;-52
2022/02/01 02:58:37;;;;;;;7.95;5.20;;;;;;;;;;5002846;28;20025;-52
2022/02/01 03:01:02;;;;;;;8.88;5.10;;;;;;;;;;5002838;28;20041;-53
2022/02/01 03:03:28;;;;;;;8.55;5.22;;;;;;;;;;5002685;28;20060;-55
2022/02/01 03:05:53;;;;;;;8.15;5.07;;;;;;;;;;5004330;28;20038;-57
2022/02/01 03:08:18;;;;;;;8.70;5.30;;;;;;;;;;5006605;28;20033;-55
2022/02/01 03:10:45;;;;;;;8.60;5.82;;;;;;;;;;5006555;28;20307;-53
2022/02/01 03:13:15;;;;;;;8.15;5.20;;;;;;;;;;5006675;28;20168;-52
2022/02/01 03:15:48;;;;;;;8.65;5.43;;;;;;;;;;5006329;28;20022;-52
2022/02/01 03:20:57;;;;;;;9.02;5.63;;;;;;;;;;5026610;28;20527;-52
2022/02/01 03:23:22;;;;;;;8.50;5.18;;;;;;;;;;5026145;28;20030;-55
2022/02/01 03:25:48;;;;;;;7.97;5.13;;;;;;;;;;5026033;28;20379;-53
2022/02/01 03:28:13;;;;;;;9.20;5.43;;;;;;;;;;5019787;28;20827;-56
2022/02/01 03:30:38;;;;;;;9.13;5.13;;;;;;;;;;5006284;28;20302;-52
2022/02/01 03:33:03;;;;;;;8.43;5.17;;;;;;;;;;5006246;28;20647;-52
2022/02/01 03:35:28;;;;;;;8.93;5.40;;;;;;;;;;5006028;28;20296;-52
2022/02/01 03:37:55;;;;;;;8.60;5.27;;;;;;;;;;5006281;28;20265;-53
2022/02/01 03:40:21;;;;;;;8.13;5.15;;;;;;;;;;5006060;28;20393;-53
2022/02/01 03:42:46;;;;;;;8.02;5.15;;;;;;;;;;5005965;28;20026;-53
2022/02/01 03:45:12;;;;;;;8.20;5.10;;;;;;;;;;5006022;28;20040;-53
2022/02/01 03:47:37;;;;;;;8.40;5.22;;;;;;;;;;5005624;28;20053;-53
2022/02/01 03:50:07;;;;;;;8.93;5.50;;;;;;;;;;5005729;28;20025;-53
2022/02/01 03:52:32;;;;;;;8.98;5.18;;;;;;;;;;5005731;28;20285;-54
2022/02/01 03:54:57;;;;;;;9.37;5.27;;;;;;;;;;5006076;28;20034;-57
2022/02/01 03:57:22;;;;;;;8.13;5.80;;;;;;;;;;5006017;28;20029;-54
2022/02/01 03:59:48;;;;;;;8.57;5.40;;;;;;;;;;5005622;28;20056;-56
2022/02/01 04:02:14;;;;;;;8.73;5.28;;;;;;;;;;5005429;28;20036;-54
2022/02/01 04:04:39;;;;;;;8.70;5.32;;;;;;;;;;5005500;28;20385;-55
2022/02/01 04:07:04;;;;;;;8.33;5.60;;;;;;;;;;5005170;28;20072;-58
2022/02/01 04:09:30;;;;;;;9.07;5.57;;;;;;;;;;5004847;28;20269;-55
2022/02/01 04:11:57;;;;;;;9.43;5.45;;;;;;;;;;5005484;28;20033;-54
2022/02/01 04:14:26;;;;;;;9.07;5.15;;;;;;;;;;5005168;28;20096;-57
2022/02/01 04:16:52;;;;;;;8.80;5.00;;;;;;;;;;5005127;28;20038;-57
2022/02/01 04:19:17;;;;;;;9.87;5.67;;;;;;;;;;5005425;28;20100;-54
2022/02/01 04:21:51;;;;;;;7.95;5.50;;;;;;;;;;5005394;28;20280;-55
2022/02/01 04:24:16;;;;;;;7.75;5.35;;;;;;;;;;5005285;28;20078;-53
2022/02/01 04:26:41;;;;;;;9.07;5.53;;;;;;;;;;5005000;28;20461;-52
2022/02/01 04:29:06;;;;;;;9.23;5.40;;;;;;;;;;5005072;28;20948;-52
2022/02/01 04:31:32;;;;;;;8.17;5.57;;;;;;;;;;5004775;28;20532;-53
2022/02/01 04:33:57;;;;;;;7.90;5.03;;;;;;;;;;5005033;28;20502;-53
2022/02/01 04:36:22;;;;;;;8.77;5.40;;;;;;;;;;5004757;28;20018;-53
2022/02/01 04:38:56;;;;;;;8.47;5.40;;;;;;;;;;5004992;28;20040;-53
2022/02/01 04:41:22;;;;;;;8.70;5.78;;;;;;;;;;5005014;28;20273;-57
2022/02/01 04:43:47;;;;;;;8.50;5.10;;;;;;;;;;5004636;28;20565;-57
2022/02/01 04:46:14;;;;;;;8.90;5.40;;;;;;;;;;5004945;28;20044;-53
2022/02/01 04:48:39;;;;;;;7.97;4.93;;;;;;;;;;5004587;28;20786;-53
2022/02/01 04:51:04;;;;;;;7.93;5.30;;;;;;;;;;5004707;28;20037;-54
2022/02/01 04:53:29;;;;;;;8.17;5.30;;;;;;;;;;5004429;28;20034;-53
2022/02/01 04:55:55;;;;;;;7.13;5.00;;;;;;;;;;5004485;28;20271;-53
2022/02/01 04:58:21;;;;;;;8.40;5.03;;;;;;;;;;5004618;28;20396;-52
2022/02/01 05:00:46;;;;;;;8.15;5.20;;;;;;;;;;5004570;28;20061;-56
2022/02/01 05:03:11;;;;;;;7.17;4.90;;;;;;;;;;5004352;28;20056;-56
2022/02/01 05:05:37;;;;;;;9.20;5.27;;;;;;;;;;5004003;28;20065;-55
2022/02/01 05:08:03;;;;;;;9.43;5.70;;;;;;;;;;5004209;28;20257;-53
2022/02/01 05:10:29;;;;;;;8.95;5.18;;;;;;;;;;5004236;28;20883;-53
2022/02/01 05:12:57;;;;;;;8.68;5.65;;;;;;;;;;5004096;28;20117;-53
2022/02/01 05:15:22;;;;;;;7.68;5.20;;;;;;;;;;5004302;28;20751;-54
2022/02/01 05:17:54;;;;;;;8.50;5.40;;;;;;;;;;5004110;28;20068;-54
2022/02/01 05:20:29;;;;;;;9.02;5.25;;;;;;;;;;5003972;28;20030;-56
2022/02/01 05:22:54;;;;;;;8.77;5.00;;;;;;;;;;5003993;28;20026;-53
2022/02/01 05:25:27;;;;;;;8.95;5.35;;;;;;;;;;5003901;28;20087;-53
2022/02/01 05:27:52;;;;;;;7.47;4.53;;;;;;;;;;5003234;28;20040;-55
2022/02/01 05:30:17;;;;;;;8.75;5.30;;;;;;;;;;5004117;28;20046;-54
2022/02/01 05:32:42;;;;;;;7.75;5.20;;;;;;;;;;5003724;28;20034;-53
2022/02/01 05:35:08;;;;;;;7.73;5.30;;;;;;;;;;5003987;28;20030;-55
2022/02/01 05:37:33;;;;;;;9.25;5.40;;;;;;;;;;5003563;28;20025;-54
2022/02/01 05:39:59;;;;;;;9.55;5.75;;;;;;;;;;5003697;28;20022;-56
2022/02/01 05:42:34;;;;;;;6.82;4.68;;;;;;;;;;5003699;28;20034;-54
2022/02/01 05:45:00;;;;;;;8.05;5.22;;;;;;;;;;5003432;28;20033;-54
2022/02/01 05:47:25;;;;;;;7.83;4.77;;;;;;;;;;5018999;28;20018;-52
2022/02/01 05:49:50;;;;;;;9.13;5.27;;;;;;;;;;5004269;28;20060;-57
2022/02/01 05:52:15;;;;;;;7.80;4.90;;;;;;;;;;5003314;28;20030;-57
2022/02/01 05:54:41;;;;;;;7.40;5.20;;;;;;;;;;5002341;28;20068;-53
2022/02/01 05:57:06;;;;;;;8.45;5.68;;;;;;;;;;5003078;28;20292;-55
2022/02/01 05:59:31;;;;;;;8.20;5.18;;;;;;;;;;5003351;28;20385;-56
2022/02/01 06:01:58;;;;;;;9.27;5.60;;;;;;;;;;5003062;28;20026;-57
2022/02/01 06:04:23;;;;;;;7.82;5.35;;;;;;;;;;5003007;28;20265;-53
2022/02/01 06:06:49;;;;;;;7.57;4.70;;;;;;;;;;5002798;28;20065;-52
2022/02/01 06:09:14;;;;;;;9.10;5.00;;;;;;;;;;5003470;28;20026;-54
2022/02/01 06:11:39;;;;;;;7.30;5.27;;;;;;;;;;5003111;28;20495;-57
2022/02/01 06:14:04;;;;;;;7.80;5.30;;;;;;;;;;5003563;28;20524;-53
2022/02/01 06:16:30;;;;;;;7.97;5.50;;;;;;;;;;5003097;28;20120;-54
2022/02/01 06:18:55;;;;;;;9.10;5.43;;;;;;;;;;5003360;28;20048;-56
2022/02/01 06:21:20;;;;;;;9.23;5.90;;;;;;;;;;5003208;28;20025;-55
2022/02/01 06:23:45;;;;;;;9.10;5.53;;;;;;;;;;5020980;28;20022;-54
2022/02/01 06:26:11;;;;;;;8.03;5.07;;;;;;;;;;4999834;28;20504;-56
2022/02/01 06:28:36;;;;;;;11.53;5.67;;;;;;;;;;5001986;28;20416;-55
2022/02/01 06:31:01;;;;;;;9.40;5.20;;;;;;;;;;5002359;28;20061;-54
2022/02/01 06:33:26;;;;;;;11.33;5.30;;;;;;;;;;5003052;28;20059;-54
2022/02/01 06:35:52;;;;;;;9.13;5.40;;;;;;;;;;5002690;28;20471;-53
2022/02/01 06:38:17;;;;;;;8.77;5.85;;;;;;;;;;5002814;28;20854;-53
2022/02/01 06:40:43;;;;;;;8.93;5.30;;;;;;;;;;5001918;28;20026;-56
2022/02/01 06:43:08;;;;;;;9.73;5.63;;;;;;;;;;4986123;28;20088;-54
2022/02/01 06:45:35;;;;;;;9.93;5.87;;;;;;;;;;4993774;28;20566;-55
2022/02/01 06:48:01;;;;;;;8.43;5.60;;;;;;;;;;5000935;28;20524;-55
2022/02/01 06:50:26;;;;;;;8.93;5.72;;;;;;;;;;5002521;28;20041;-55
2022/02/01 06:52:56;;;;;;;9.57;6.10;;;;;;;;;;5000497;28;20028;-54
2022/02/01 06:55:32;;;;;;;8.80;5.85;;;;;;;;;;5001405;28;20030;-53
2022/02/01 06:57:57;;;;;;;8.48;5.45;;;;;;;;;;5002707;28;20022;-55
2022/02/01 07:00:23;;;;;;;9.07;5.88;;;;;;;;;;5002743;28;20025;-55
2022/02/01 07:02:48;;;;;;;8.83;5.60;;;;;;;;;;5002971;28;20041;-54
2022/02/01 07:05:13;;;;;;;10.50;6.40;;;;;;;;;;5002776;28;20029;-54
2022/02/01 07:07:38;;;;;;;10.97;6.33;;;;;;;;;;5002537;28;20041;-54
2022/02/01 07:10:04;;;;;;;9.73;6.37;;;;;;;;;;5002737;28;20022;-54
2022/02/01 07:12:29;;;;;;;9.70;5.82;;;;;;;;;;5002500;28;20277;-54
2022/02/01 07:14:54;;;;;;;9.40;5.95;;;;;;;;;;5002529;28;20496;-54
2022/02/01 07:17:19;;;;;;;9.83;6.47;;;;;;;;;;5002088;28;20420;-54
2022/02/01 07:19:45;;;;;;;10.37;6.20;;;;;;;;;;5000535;28;20330;-56
2022/02/01 07:22:10;;;;;;;9.40;6.23;;;;;;;;;;5001852;28;20335;-53
2022/02/01 07:24:48;;;;;;;9.07;6.10;;;;;;;;;;5001742;28;20268;-55
2022/02/01 07:27:23;;;;;;;8.32;6.03;;;;;;;;;;5002359;28;20076;-53
2022/02/01 07:29:48;;;;;;;10.18;6.53;;;;;;;;;;5001627;28;20538;-58
2022/02/01 07:32:13;;;;;;;9.93;6.10;;;;;;;;;;5002191;28;20118;-53
2022/02/01 07:34:39;;;;;;;10.03;6.50;;;;;;;;;;5000370;28;21048;-55
2022/02/01 07:37:04;;;;;;;9.68;6.28;;;;;;;;;;4983332;28;20292;-54
2022/02/01 07:39:29;;;;;;;10.40;6.90;;;;;;;;;;4983634;28;20162;-54
2022/02/01 07:41:54;;;;;;;10.40;6.53;;;;;;;;;;4983325;28;20319;-53
2022/02/01 07:44:19;;;;;;;11.00;6.83;;;;;;;;;;4988438;28;20050;-54
2022/02/01 07:46:45;;;;;;;10.18;6.70;;;;;;;;;;5001813;28;20101;-54
2022/02/01 07:49:17;;;;;;;11.98;7.07;;;;;;;;;;5001825;28;20809;-54
2022/02/01 07:51:42;;;;;;;11.43;6.82;;;;;;;;;;4987248;28;20049;-55
2022/02/01 07:54:07;;;;;;;10.97;7.23;;;;;;;;;;5004745;28;20021;-55
2022/02/01 07:56:32;;;;;;;11.43;7.10;;;;;;;;;;5004843;28;20041;-54
2022/02/01 07:58:58;;;;;;;11.63;6.97;;;;;;;;;;5004977;28;20014;-56
2022/02/01 08:01:23;;;;;;;10.57;6.80;;;;;;;;;;5004714;28;20014;-54
2022/02/01 08:03:48;;;;;;;9.98;7.35;;;;;;;;;;5004374;28;20038;-55
2022/02/01 08:06:15;;;;;;;10.87;7.10;;;;;;;;;;5004172;28;20061;-55
2022/02/01 08:08:41;;;;;;;12.23;7.35;;;;;;;;;;5005038;28;20771;-55
2022/02/01 08:11:11;;;;;;;12.27;7.20;;;;;;;;;;5005146;28;20034;-54
2022/02/01 08:16:36;;;;;;;12.80;6.32;;;;;;;;;;5005069;28;20299;-55
2022/02/01 08:19:09;;;;;;;11.13;6.90;;;;;;;;;;5005129;28;20045;-54
2022/02/01 08:21:43;;;;;;;13.13;7.10;;;;;;;;;;5005254;28;20029;-55
2022/02/01 08:24:08;;;;;;;12.23;7.40;;;;;;;;;;5004982;28;20160;-54
2022/02/01 08:26:33;;;;;;;10.25;7.07;;;;;;;;;;5004899;28;20045;-56
2022/02/01 08:28:59;;;;;;;10.67;7.00;;;;;;;;;;5003523;28;20026;-55
2022/02/01 08:31:24;;;;;;;8.75;7.00;;;;;;;;;;5004869;28;20072;-56
2022/02/01 08:33:49;;;;;;;10.03;6.67;;;;;;;;;;5003258;28;20022;-56
2022/02/01 08:36:14;;;;;;;10.03;6.87;;;;;;;;;;5004713;28;20042;-54
2022/02/01 08:38:40;;;;;;;10.00;6.80;;;;;;;;;;5004836;28;20280;-55
2022/02/01 08:41:05;;;;;;;10.20;6.90;;;;;;;;;;5004872;28;20033;-55
2022/02/01 08:43:31;;;;;;;11.27;7.10;;;;;;;;;;5003926;28;20782;-55
2022/02/01 08:45:56;;;;;;;12.77;7.10;;;;;;;;;;5004292;28;20043;-55
2022/02/01 08:48:21;;;;;;;9.87;6.60;;;;;;;;;;5004869;28;20026;-55
2022/02/01 08:50:47;;;;;;;11.32;6.97;;;;;;;;;;5004852;28;20403;-54
2022/02/01 08:53:19;;;;;;;11.65;7.28;;;;;;;;;;5005046;28;20433;-54
2022/02/01 08:56:02;;;;;;;10.70;7.18;;;;;;;;;;5004516;28;20029;-55
2022/02/01 08:58:28;;;;;;;12.07;6.82;;;;;;;;;;5004954;28;20030;-54
2022/02/01 09:00:54;;;;;;;11.15;7.05;;;;;;;;;;5004996;28;20029;-55
2022/02/01 09:03:19;;;;;;;9.57;6.55;;;;;;;;;;5004514;28;20030;-55
2022/02/01 09:05:52;;;;;;;9.95;6.90;;;;;;;;;;5003240;28;20053;-55
2022/02/01 09:08:17;;;;;;;11.57;6.45;;;;;;;;;;5004506;28;20554;-55
2022/02/01 09:10:42;;;;;;;10.02;6.93;;;;;;;;;;5004695;28;20091;-55
2022/02/01 09:13:08;;;;;;;9.97;6.90;;;;;;;;;;5004436;28;20018;-55
2022/02/01 09:15:33;;;;;;;9.73;6.82;;;;;;;;;;5004487;28;20261;-55
2022/02/01 09:18:00;;;;;;;10.88;7.40;;;;;;;;;;5004132;28;20036;-56
2022/02/01 09:20:25;;;;;;;11.13;7.35;;;;;;;;;;5004444;28;20029;-57
2022/02/01 09:22:51;;;;;;;11.57;7.38;;;;;;;;;;5004483;28;20546;-59
2022/02/01 09:25:17;;;;;;;10.00;6.97;;;;;;;;;;5004292;28;20254;-55
2022/02/01 09:27:47;;;;;;;11.43;7.07;;;;;;;;;;5004092;28;20030;-56
2022/02/01 09:30:14;;;;;;;10.80;7.25;;;;;;;;;;5003682;28;20044;-56
2022/02/01 09:32:39;;;;;;;9.48;7.00;;;;;;;;;;5004057;28;20101;-54
2022/02/01 09:35:04;;;;;;;12.00;7.40;;;;;;;;;;5004051;28;20097;-56
2022/02/01 09:37:30;;;;;;;12.43;7.45;;;;;;;;;;5003849;28;20064;-55
2022/02/01 09:39:55;;;;;;;11.43;6.95;;;;;;;;;;5003898;28;20076;-55
2022/02/01 09:42:24;;;;;;;10.95;7.13;;;;;;;;;;5003558;28;20084;-54
2022/02/01 09:44:52;;;;;;;9.50;6.50;;;;;;;;;;5003808;28;20104;-54
2022/02/01 09:47:17;;;;;;;9.98;7.25;;;;;;;;;;5003699;28;20010;-54
2022/02/01 09:49:44;;;;;;;11.03;7.30;;;;;;;;;;5003534;28;20026;-54
2022/02/01 09:52:10;;;;;;;10.80;6.97;;;;;;;;;;5003899;28;20030;-54
2022/02/01 09:54:35;;;;;;;10.57;7.13;;;;;;;;;;5003429;28;20083;-54
2022/02/01 09:57:06;;;;;;;11.73;6.97;;;;;;;;;;5003595;28;20309;-54
2022/02/01 09:59:33;;;;;;;10.65;6.82;;;;;;;;;;5003508;28;20025;-54
2022/02/01 10:02:06;;;;;;;12.02;6.75;;;;;;;;;;5003321;28;20112;-55
2022/02/01 10:04:31;;;;;;;14.73;6.78;;;;;;;;;;5003519;28;20029;-56
2022/02/01 10:07:06;;;;;;;10.30;6.97;;;;;;;;;;5002012;28;20070;-55
2022/02/01 10:09:31;;;;;;;11.23;6.75;;;;;;;;;;5003469;28;20375;-55
2022/02/01 10:11:57;;;;;;;10.63;7.18;;;;;;;;;;5002891;28;20113;-56
2022/02/01 10:14:26;;;;;;;11.32;7.00;;;;;;;;;;4999823;28;20496;-55
2022/02/01 10:16:52;;;;;;;10.57;6.35;;;;;;;;;;5002963;28;20042;-56
2022/02/01 10:19:19;;;;;;;10.13;6.90;;;;;;;;;;5003200;28;20026;-55
2022/02/01 10:22:02;;;;;;;9.88;6.88;;;;;;;;;;5003165;28;20018;-56
2022/02/01 10:24:33;;;;;;;10.50;6.50;;;;;;;;;;5003303;28;20444;-57
2022/02/01 10:27:15;;;;;;;9.68;6.70;;;;;;;;;;5002967;28;20028;-56
2022/02/01 10:32:49;;;;;;;8.80;6.35;;;;;;;;;;4991927;28;20042;-57
2022/02/01 10:37:57;;;;;;;10.90;6.60;;;;;;;;;;5002413;28;20482;-54
2022/02/01 10:40:22;;;;;;;9.45;6.20;;;;;;;;;;5002023;28;20511;-55
2022/02/01 10:43:02;;;;;;;9.30;6.30;;;;;;;;;;5001975;28;20014;-55
2022/02/01 10:45:27;;;;;;;10.45;6.10;;;;;;;;;;5002912;28;20040;-53
2022/02/01 10:47:52;;;;;;;9.30;6.43;;;;;;;;;;5003036;28;20022;-54
2022/02/01 10:50:17;;;;;;;10.83;6.40;;;;;;;;;;4998804;28;20026;-53
2022/02/01 10:52:44;;;;;;;8.97;6.00;;;;;;;;;;5002627;28;20033;-54
2022/02/01 10:55:09;;;;;;;12.15;6.35;;;;;;;;;;5002755;28;20269;-52
2022/02/01 10:57:35;;;;;;;9.93;6.05;;;;;;;;;;5002181;28;20442;-53
2022/02/01 11:00:01;;;;;;;10.25;6.18;;;;;;;;;;5002386;28;20539;-54
2022/02/01 11:02:26;;;;;;;9.13;6.10;;;;;;;;;;5002524;28;20030;-55
2022/02/01 11:04:51;;;;;;;10.03;6.33;;;;;;;;;;5001528;28;20487;-57
2022/02/01 11:07:17;;;;;;;10.85;6.00;;;;;;;;;;5002473;28;20503;-56
2022/02/01 11:09:43;;;;;;;9.87;6.20;;;;;;;;;;5002704;28;20028;-57
2022/02/01 11:12:10;;;;;;;9.75;6.07;;;;;;;;;;5002454;28;20360;-56
2022/02/01 11:14:55;;;;;;;11.07;6.85;;;;;;;;;;5002611;28;20022;-54
2022/02/01 11:17:21;;;;;;;8.63;6.03;;;;;;;;;;5002705;28;20117;-57
2022/02/01 11:19:51;;;;;;;9.35;6.22;;;;;;;;;;5002359;28;20771;-55
2022/02/01 11:22:32;;;;;;;8.18;5.60;;;;;;;;;;5002410;28;20096;-55
2022/02/01 11:24:59;;;;;;;8.82;5.90;;;;;;;;;;5000407;28;20033;-54
2022/02/01 11:27:31;;;;;;;8.88;5.88;;;;;;;;;;5005094;28;20025;-54
2022/02/01 11:32:34;;;;;;;9.18;5.50;;;;;;;;;;5004658;28;20114;-55
2022/02/01 11:35:09;;;;;;;8.85;5.80;;;;;;;;;;5005339;28;20032;-55
2022/02/01 11:37:44;;;;;;;9.60;6.15;;;;;;;;;;5005419;28;20030;-54
2022/02/01 11:40:11;;;;;;;9.25;6.30;;;;;;;;;;5005067;28;20415;-57
2022/02/01 11:42:37;;;;;;;9.05;5.93;;;;;;;;;;5000899;28;20556;-56
2022/02/01 11:45:06;;;;;;;8.60;6.00;;;;;;;;;;5006844;28;20109;-54
2022/02/01 11:47:31;;;;;;;9.68;5.93;;;;;;;;;;5005784;28;20331;-54
2022/02/01 11:50:01;;;;;;;9.60;5.70;;;;;;;;;;5005602;28;20521;-56
2022/02/01 11:52:27;;;;;;;9.23;5.53;;;;;;;;;;5005803;28;20030;-55
2022/02/01 11:54:59;;;;;;;9.02;5.90;;;;;;;;;;5005533;28;20507;-56
2022/02/01 11:57:25;;;;;;;8.80;5.70;;;;;;;;;;5005813;28;20030;-54
2022/02/01 12:00:13;;;;;;;9.70;6.22;;;;;;;;;;5005785;28;20506;-56
2022/02/01 12:02:40;;;;;;;9.70;6.20;;;;;;;;;;5005857;28;20057;-56
2022/02/01 12:05:14;;;;;;;9.30;5.70;;;;;;;;;;5005957;28;20033;-55
2022/02/01 12:08:00;;;;;;;8.80;5.32;;;;;;;;;;5006741;28;20029;-54
2022/02/01 12:10:25;;;;;;;8.85;5.63;;;;;;;;;;4992118;28;20037;-54
2022/02/01 12:12:51;;;;;;;8.23;5.63;;;;;;;;;;5005812;28;20021;-53
2022/02/01 12:15:16;;;;;;;8.87;5.93;;;;;;;;;;5004844;28;20116;-54
2022/02/01 12:17:48;;;;;;;8.13;5.43;;;;;;;;;;5006097;28;20172;-55
2022/02/01 12:20:14;;;;;;;7.65;4.72;;;;;;;;;;4990043;28;20108;-56
2022/02/01 12:22:40;;;;;;;7.82;5.50;;;;;;;;;;5012824;28;20578;-54
2022/02/01 12:25:06;;;;;;;9.20;5.82;;;;;;;;;;5027312;28;20420;-55
2022/02/01 12:27:35;;;;;;;8.80;5.57;;;;;;;;;;5001404;28;20416;-55
2022/02/01 12:30:00;;;;;;;7.93;5.43;;;;;;;;;;5003856;28;20060;-53
2022/02/01 12:32:26;;;;;;;9.07;5.68;;;;;;;;;;5005569;28;20495;-56
2022/02/01 12:34:51;;;;;;;8.20;5.43;;;;;;;;;;5006223;28;20034;-56
2022/02/01 12:37:23;;;;;;;9.23;5.30;;;;;;;;;;5006005;28;20276;-60
2022/02/01 12:40:04;;;;;;;7.88;4.57;;;;;;;;;;5005966;28;20109;-54
2022/02/01 12:42:37;;;;;;;8.02;5.32;;;;;;;;;;5005494;28;20018;-58
2022/02/01 12:47:46;;;;;;;13.68;5.47;;;;;;;;;;5004924;28;20125;-59
2022/02/01 12:50:12;;;;;;;8.77;5.50;;;;;;;;;;5005012;28;20049;-55
2022/02/01 12:52:38;;;;;;;9.32;4.97;;;;;;;;;;5005322;28;20420;-56
2022/02/01 12:55:05;;;;;;;8.18;5.05;;;;;;;;;;5005140;28;20044;-55
2022/02/01 12:57:30;;;;;;;8.95;5.25;;;;;;;;;;5005281;28;20416;-56
2022/02/01 12:59:57;;;;;;;7.60;4.68;;;;;;;;;;5005115;28;20168;-57
2022/02/01 13:02:26;;;;;;;7.72;4.90;;;;;;;;;;5002919;28;20026;-58
2022/02/01 13:04:56;;;;;;;9.18;4.50;;;;;;;;;;5001487;28;20026;-57
2022/02/01 13:15:45;;;;;;;7.43;4.50;;;;;;;;;;5004284;28;20022;-56
2022/02/01 13:20:43;;;;;;;10.23;4.80;;;;;;;;;;5004811;28;20817;-56
2022/02/01 13:23:08;;;;;;;7.73;4.27;;;;;;;;;;5004737;28;20014;-56
2022/02/01 13:25:38;;;;;;;7.03;4.80;;;;;;;;;;5001154;28;20076;-56
2022/02/01 13:28:04;;;;;;;6.75;4.78;;;;;;;;;;5003469;28;20030;-57
2022/02/01 13:30:30;;;;;;;7.53;4.68;;;;;;;;;;5004237;28;20479;-57
2022/02/01 13:33:02;;;;;;;6.22;4.25;;;;;;;;;;5004364;28;20021;-55
2022/02/01 13:35:27;;;;;;;7.03;4.68;;;;;;;;;;5004494;28;20048;-57
2022/02/01 13:37:53;;;;;;;7.63;4.70;;;;;;;;;;5004182;28;20422;-56
2022/02/01 13:40:36;;;;;;;7.93;4.53;;;;;;;;;;5002623;28;20272;-55
2022/02/01 13:43:10;;;;;;;8.35;4.47;;;;;;;;;;5003101;28;20025;-56
2022/02/01 13:45:35;;;;;;;9.75;4.80;;;;;;;;;;5004456;28;20124;-57
2022/02/01 13:48:01;;;;;;;7.03;4.53;;;;;;;;;;5003400;28;20763;-58
2022/02/01 13:50:26;;;;;;;8.57;4.67;;;;;;;;;;5001821;28;20100;-55
2022/02/01 13:52:58;;;;;;;8.90;4.85;;;;;;;;;;5003973;28;20802;-56
2022/02/01 13:55:24;;;;;;;8.15;4.38;;;;;;;;;;5004282;28;20044;-58
2022/02/01 13:57:52;;;;;;;7.85;4.38;;;;;;;;;;5004390;28;20555;-55
2022/02/01 14:00:18;;;;;;;7.53;4.13;;;;;;;;;;5003683;28;20033;-56
2022/02/01 14:02:47;;;;;;;8.50;4.75;;;;;;;;;;5000567;28;20026;-57
2022/02/01 14:05:22;;;;;;;7.32;4.03;;;;;;;;;;5003788;28;20022;-56
2022/02/01 14:08:14;;;;;;;7.30;4.38;;;;;;;;;;5004358;28;20022;-56
2022/02/01 14:10:55;;;;;;;7.70;4.10;;;;;;;;;;4992663;28;20665;-56
2022/02/01 14:16:21;;;;;;;6.27;4.00;;;;;;;;;;5003690;28;20030;-57
2022/02/01 14:26:50;;;;;;;6.70;4.22;;;;;;;;;;5002887;28;20029;-57
2022/02/01 14:34:29;;;;;;;5.88;3.70;;;;;;;;;;5003141;28;20540;-59
2022/02/01 14:36:58;;;;;;;9.32;3.97;;;;;;;;;;5002332;28;20037;-56
2022/02/01 14:44:46;;;;;;;6.53;4.38;;;;;;;;;;5002161;28;20165;-57
2022/02/01 14:47:15;;;;;;;6.78;3.70;;;;;;;;;;5002256;28;20022;-57
2022/02/01 14:49:41;;;;;;;5.63;3.78;;;;;;;;;;5002672;28;20087;-56
2022/02/01 14:52:06;;;;;;;5.75;3.13;;;;;;;;;;5002320;28;20030;-56
2022/02/01 14:54:36;;;;;;;5.65;3.58;;;;;;;;;;5003096;28;20782;-57
2022/02/01 15:03:44;;;;;;;5.18;3.08;;;;;;;;;;5002739;28;20025;-56
2022/02/01 15:13:16;;;;;;;6.15;3.10;;;;;;;;;;5007105;28;20200;-61
2022/02/01 15:15:42;;;;;;;6.53;3.38;;;;;;;;;;5006038;28;20112;-56
2022/02/01 15:18:07;;;;;;;6.47;3.60;;;;;;;;;;5006474;28;20594;-57
2022/02/01 15:20:34;;;;;;;5.20;3.10;;;;;;;;;;5005616;28;20356;-56
2022/02/01 15:22:59;;;;;;;5.28;3.60;;;;;;;;;;5006995;28;20272;-57
2022/02/01 15:25:24;;;;;;;5.38;3.10;;;;;;;;;;5006736;28;20033;-55
2022/02/01 15:27:49;;;;;;;6.47;3.57;;;;;;;;;;5006895;28;20014;-56
2022/02/01 15:30:15;;;;;;;5.28;3.58;;;;;;;;;;5006559;28;20041;-56
2022/02/01 15:32:40;;;;;;;5.90;2.93;;;;;;;;;;5006440;28;20309;-56
2022/02/01 15:35:12;;;;;;;5.67;3.10;;;;;;;;;;5006102;28;20275;-57
2022/02/01 15:37:38;;;;;;;4.18;2.97;;;;;;;;;;5004994;28;20100;-56
2022/02/01 15:58:41;;;;;;;4.37;2.90;;;;;;;;;;5006399;28;20105;-56
2022/02/01 16:01:14;;;;;;;4.80;3.00;;;;;;;;;;5002038;28;20312;-56
2022/02/01 16:03:43;;;;;;;4.43;2.67;;;;;;;;;;5005063;28;20026;-56
2022/02/01 16:06:08;;;;;;;5.03;2.60;;;;;;;;;;5005465;28;20121;-55
2022/02/01 16:08:37;;;;;;;4.57;2.77;;;;;;;;;;5005880;28;20113;-56
2022/02/01 16:11:06;;;;;;;4.47;2.60;;;;;;;;;;5005539;28;20300;-56
2022/02/01 16:13:45;;;;;;;5.10;2.72;;;;;;;;;;5003251;28;20599;-56
2022/02/01 16:16:11;;;;;;;4.50;2.73;;;;;;;;;;4999265;28;20037;-56
2022/02/01 16:18:37;;;;;;;3.88;2.70;;;;;;;;;;5004368;28;20030;-56
2022/02/01 16:21:02;;;;;;;5.13;2.83;;;;;;;;;;5003176;28;20053;-56
2022/02/01 16:23:27;;;;;;;4.43;2.50;;;;;;;;;;5005644;28;20528;-56
2022/02/01 16:25:52;;;;;;;4.30;2.60;;;;;;;;;;5005371;28;20337;-55
2022/02/01 16:28:18;;;;;;;4.60;2.80;;;;;;;;;;5005013;28;20269;-56
2022/02/01 16:30:43;;;;;;;4.28;2.75;;;;;;;;;;5005059;28;20304;-56
2022/02/01 16:33:09;;;;;;;4.22;2.45;;;;;;;;;;5005244;28;20029;-55
2022/02/01 16:35:34;;;;;;;4.22;2.25;;;;;;;;;;5005350;28;20048;-57
2022/02/01 16:38:00;;;;;;;4.87;2.50;;;;;;;;;;5003829;28;20084;-57
2022/02/01 16:40:27;;;;;;;3.50;2.20;;;;;;;;;;5005292;28;20034;-56
2022/02/01 16:42:53;;;;;;;4.38;2.55;;;;;;;;;;5004365;28;20018;-56
2022/02/01 16:45:24;;;;;;;5.07;2.78;;;;;;;;;;5003816;28;20688;-56
2022/02/01 16:47:49;;;;;;;5.00;2.47;;;;;;;;;;5003895;28;20040;-56
2022/02/01 16:50:16;;;;;;;4.65;2.42;;;;;;;;;;5001702;28;20481;-56
2022/02/01 16:52:47;;;;;;;3.67;2.33;;;;;;;;;;5005197;28;20109;-56
2022/02/01 16:56:17;;;;;;;5.90;2.85;;;;;;;;;;5004853;28;20018;-57
2022/02/01 16:58:22;;;;;;;3.83;3.03;;;;;;;;;;5008239;28;20042;-57
2022/02/01 17:00:47;;;;;;;6.05;3.03;;;;;;;;;;5004766;28;20017;-58
2022/02/01 17:03:13;;;;;;;5.22;3.25;;;;;;;;;;5004888;28;20022;-57
2022/02/01 17:05:38;;;;;;;4.83;3.00;;;;;;;;;;5004816;28;20140;-57
2022/02/01 17:08:03;;;;;;;5.87;3.37;;;;;;;;;;5003688;28;20045;-57
2022/02/01 17:10:29;;;;;;;4.45;2.53;;;;;;;;;;5005178;28;20056;-57
2022/02/01 17:13:14;;;;;;;4.07;2.60;;;;;;;;;;5004987;28;20106;-57
2022/02/01 17:16:13;;;;;;;4.85;3.17;;;;;;;;;;5004465;28;20014;-57